Time;durP1;ratioP1;P1;durP2;ratioP2;P2;SDS_P1;SDS_P2;PMS_P1;PMS_P2;Temp;Humidity;BMP_temperature;BMP_pressure;BME280_temperature;BME280_humidity;BME280_pressure;Samples;Min_cycle;Max_cycle;Signal;HPM_P1;HPM_P2
2023/08/28 00:03:59;;;;;;;2.95;2.67;;;;;;;-145.68;100.00;73299.91;10334912;28;20283;-66
2023/08/28 00:09:00;;;;;;;4.80;2.72;;;;;;;-145.68;100.00;73299.91;10335333;28;20186;-67
2023/08/28 00:14:00;;;;;;;4.72;2.70;;;;;;;-145.68;100.00;73293.94;10334698;28;20214;-66
2023/08/28 00:19:01;;;;;;;6.43;3.25;;;;;;;-145.68;100.00;73305.91;10334397;28;20668;-66
2023/08/28 00:24:01;;;;;;;4.93;2.97;;;;;;;-145.68;100.00;73303.91;10334214;28;20276;-66
2023/08/28 00:29:02;;;;;;;4.20;2.58;;;;;;;-145.68;100.00;73301.91;10334200;28;20243;-66
2023/08/28 00:34:03;;;;;;;4.40;2.85;;;;;;;-145.68;100.00;73319.91;10316927;28;20264;-67
2023/08/28 00:39:03;;;;;;;4.60;2.80;;;;;;;-145.68;100.00;73289.94;10316363;28;20726;-67
2023/08/28 00:44:04;;;;;;;5.50;2.85;;;;;;;-145.68;100.00;73283.94;10316121;28;20225;-67
2023/08/28 00:49:04;;;;;;;3.90;2.70;;;;;;;-145.68;100.00;73311.91;10316211;28;20188;-67
2023/08/28 00:54:07;;;;;;;5.10;3.28;;;;;;;-145.68;100.00;73341.91;10333106;28;20584;-67
2023/08/28 00:59:07;;;;;;;8.48;3.00;;;;;;;-145.68;100.00;73333.91;10315721;28;20209;-67
2023/08/28 01:04:08;;;;;;;4.18;2.85;;;;;;;-145.68;100.00;73329.91;10314741;28;20661;-67
2023/08/28 01:09:15;;;;;;;5.28;2.95;;;;;;;-145.68;100.00;73311.91;10331142;28;20178;-67
2023/08/28 01:14:28;;;;;;;3.05;2.75;;;;;;;-145.68;100.00;73327.91;10315206;28;20217;-67
2023/08/28 01:19:32;;;;;;;4.25;2.60;;;;;;;-145.68;100.00;73307.91;10332462;28;20190;-67
2023/08/28 01:24:33;;;;;;;4.88;2.90;;;;;;;-145.68;100.00;73321.91;10320655;22;20240;-69
2023/08/28 01:29:33;;;;;;;3.95;3.05;;;;;;;-145.68;100.00;73325.91;10417621;28;20684;-69
2023/08/28 01:34:34;;;;;;;4.90;2.88;;;;;;;-145.68;100.00;73323.91;10454397;28;20199;-69
2023/08/28 01:39:42;;;;;;;6.30;3.00;;;;;;;-145.68;100.00;73325.91;10436625;28;20188;-70
2023/08/28 01:44:43;;;;;;;4.75;2.95;;;;;;;-145.68;100.00;73313.91;10436236;28;20255;-69
2023/08/28 01:49:44;;;;;;;8.27;3.90;;;;;;;-145.68;100.00;73341.91;10419561;28;20198;-69
2023/08/28 01:54:44;;;;;;;4.07;3.40;;;;;;;-145.68;100.00;73325.91;10453678;28;20199;-70
2023/08/28 01:59:44;;;;;;;3.25;2.80;;;;;;;-145.68;100.00;73321.91;10419295;28;20363;-69
2023/08/28 02:04:46;;;;;;;3.70;3.28;;;;;;;-145.68;100.00;73329.91;10435259;28;20227;-69
2023/08/28 02:09:47;;;;;;;6.00;3.28;;;;;;;-145.68;100.00;73329.91;10435412;28;20287;-68
2023/08/28 02:14:47;;;;;;;3.83;3.20;;;;;;;-145.68;100.00;73341.91;10452969;28;20322;-70
2023/08/28 02:19:48;;;;;;;4.63;3.30;;;;;;;-145.68;100.00;73365.88;10452383;28;20196;-69
2023/08/28 02:24:48;;;;;;;3.30;3.00;;;;;;;-145.68;100.00;73381.88;10434583;28;20310;-68
2023/08/28 02:29:49;;;;;;;7.50;3.33;;;;;;;-145.68;100.00;73399.84;10452669;28;20274;-71
2023/08/28 02:34:49;;;;;;;6.32;2.90;;;;;;;-145.68;100.00;73421.84;10452471;28;20204;-69
2023/08/28 02:39:50;;;;;;;4.30;3.15;;;;;;;-145.68;100.00;73451.81;10434622;28;20638;-69
2023/08/28 02:44:51;;;;;;;5.85;3.63;;;;;;;-145.68;100.00;73469.81;10434220;28;20593;-69
2023/08/28 02:49:51;;;;;;;5.68;3.42;;;;;;;-145.68;100.00;73471.81;10434478;28;20184;-70
2023/08/28 02:54:52;;;;;;;6.03;3.03;;;;;;;-145.68;100.00;73449.81;10452134;28;20221;-69
2023/08/28 02:59:52;;;;;;;4.00;3.50;;;;;;;-145.68;100.00;73445.81;10434252;28;20196;-69
2023/08/28 03:04:52;;;;;;;6.43;3.63;;;;;;;-145.68;100.00;73487.81;10451673;28;20226;-70
2023/08/28 03:09:53;;;;;;;7.25;3.70;;;;;;;-145.68;100.00;73487.81;10433964;28;20199;-69
2023/08/28 03:14:54;;;;;;;5.38;3.70;;;;;;;-145.68;100.00;73513.78;10451657;28;20208;-69
2023/08/28 03:19:54;;;;;;;3.83;3.28;;;;;;;-145.68;100.00;73517.78;10433824;28;20242;-69
2023/08/28 03:24:55;;;;;;;4.43;3.63;;;;;;;-145.68;100.00;73525.78;10451306;28;20258;-69
2023/08/28 03:29:55;;;;;;;8.25;4.25;;;;;;;-145.68;100.00;73553.75;10451760;28;20192;-69
2023/08/28 03:34:55;;;;;;;6.38;5.00;;;;;;;-145.68;100.00;73571.75;10457348;28;20212;-69
2023/08/28 03:39:56;;;;;;;5.93;4.70;;;;;;;-145.68;100.00;73575.75;10440998;28;20196;-69
2023/08/28 03:44:56;;;;;;;6.10;4.50;;;;;;;-145.68;100.00;73583.75;10457896;28;20224;-68
2023/08/28 03:49:57;;;;;;;9.00;4.88;;;;;;;-145.68;100.00;73583.75;10441059;28;20195;-68
2023/08/28 03:54:57;;;;;;;7.00;4.55;;;;;;;-145.68;100.00;73585.75;10440366;28;20214;-68
2023/08/28 03:59:58;;;;;;;8.70;3.92;;;;;;;-145.68;100.00;73585.75;10458187;28;20529;-69
2023/08/28 04:04:58;;;;;;;6.97;4.15;;;;;;;-145.68;100.00;73585.75;10439946;28;20842;-68
2023/08/28 04:09:59;;;;;;;4.75;4.20;;;;;;;-145.68;100.00;73583.75;10439771;28;20249;-69
2023/08/28 04:14:59;;;;;;;4.30;3.90;;;;;;;-145.68;100.00;73587.75;10457966;28;20301;-68
2023/08/28 04:20:08;;;;;;;4.15;3.55;;;;;;;-145.68;100.00;73585.75;10457364;28;20196;-68
2023/08/28 04:25:10;;;;;;;5.68;3.88;;;;;;;-145.68;100.00;73583.75;10438884;28;20672;-68
2023/08/28 04:30:11;;;;;;;7.28;4.40;;;;;;;-145.68;100.00;73589.75;10457325;28;20552;-68
2023/08/28 04:35:12;;;;;;;5.13;4.50;;;;;;;-145.68;100.00;73589.75;10438558;28;20210;-68
2023/08/28 04:40:12;;;;;;;6.15;3.90;;;;;;;-145.68;100.00;73575.75;10456969;28;20184;-68
2023/08/28 04:45:13;;;;;;;4.20;3.75;;;;;;;-145.68;100.00;73559.75;10453821;28;20655;-68
2023/08/28 04:50:13;;;;;;;4.55;3.50;;;;;;;-145.68;100.00;73547.75;10456319;28;20204;-68
2023/08/28 04:55:16;;;;;;;4.90;3.65;;;;;;;-145.68;100.00;73563.75;10438185;28;20658;-68
2023/08/28 05:00:16;;;;;;;4.25;3.75;;;;;;;-145.68;100.00;73565.75;10455843;28;20271;-68
2023/08/28 05:05:17;;;;;;;5.57;3.53;;;;;;;-145.68;100.00;73559.75;10437725;28;20227;-68
2023/08/28 05:10:17;;;;;;;4.45;3.95;;;;;;;-145.68;100.00;73559.75;10437370;28;20188;-68
2023/08/28 05:15:18;;;;;;;6.97;3.83;;;;;;;-145.68;100.00;73557.75;10455450;28;20262;-68
2023/08/28 05:20:18;;;;;;;6.47;3.65;;;;;;;-145.68;100.00;73551.75;10437084;28;20241;-68
2023/08/28 05:25:19;;;;;;;4.97;3.60;;;;;;;-145.68;100.00;73539.78;10454643;28;20582;-68
2023/08/28 05:30:19;;;;;;;4.13;3.72;;;;;;;-145.68;100.00;73535.78;10454945;28;20188;-68
2023/08/28 05:35:19;;;;;;;3.72;3.42;;;;;;;-145.68;100.00;73527.78;10433102;28;20216;-68
2023/08/28 05:40:20;;;;;;;6.13;3.47;;;;;;;-145.68;100.00;73513.78;10414792;28;20728;-68
2023/08/28 05:45:21;;;;;;;9.63;3.72;;;;;;;-145.68;100.00;73515.78;10393554;28;20265;-68
2023/08/28 05:50:21;;;;;;;3.90;3.10;;;;;;;-145.68;100.00;73509.78;10397102;28;20196;-69
2023/08/28 05:55:22;;;;;;;3.40;3.10;;;;;;;-145.68;100.00;73503.78;10394888;28;20208;-68
2023/08/28 06:00:22;;;;;;;6.95;2.85;;;;;;;-145.68;100.00;73475.81;10394646;28;20184;-68
2023/08/28 06:05:23;;;;;;;5.70;2.90;;;;;;;-145.68;100.00;73463.81;10394538;28;20239;-68
2023/08/28 06:10:23;;;;;;;6.53;2.60;;;;;;;-145.68;100.00;73453.81;10394211;28;20180;-68
2023/08/28 06:15:25;;;;;;;3.60;2.67;;;;;;;-145.68;100.00;73443.84;10411374;28;20234;-68
2023/08/28 06:20:25;;;;;;;7.90;2.35;;;;;;;-145.68;100.00;73439.84;10404926;28;20207;-68
2023/08/28 06:25:26;;;;;;;8.45;2.47;;;;;;;-145.68;100.00;73423.84;10426458;28;20232;-67
2023/08/28 06:30:26;;;;;;;4.53;2.67;;;;;;;-145.68;100.00;73399.84;10393893;28;20235;-67
2023/08/28 06:35:28;;;;;;;4.82;2.58;;;;;;;-145.68;100.00;73375.88;10393477;28;20255;-67
2023/08/28 06:40:29;;;;;;;6.13;2.70;;;;;;;-145.68;100.00;73431.84;10411348;28;20188;-67
2023/08/28 06:45:30;;;;;;;4.03;2.30;;;;;;;-145.68;100.00;73415.84;10410960;28;20216;-67
2023/08/28 06:50:32;;;;;;;3.45;2.20;;;;;;;-145.68;100.00;73393.84;10411136;28;20275;-67
2023/08/28 06:55:35;;;;;;;2.08;1.77;;;;;;;-145.68;100.00;73339.91;10410934;28;20236;-66
2023/08/28 07:00:36;;;;;;;2.60;2.38;;;;;;;-145.68;100.00;73309.91;10410650;28;20215;-66
2023/08/28 07:05:36;;;;;;;7.95;2.25;;;;;;;-145.68;100.00;73281.94;10410874;28;20227;-67
2023/08/28 07:10:36;;;;;;;3.90;1.83;;;;;;;-145.68;100.00;73265.94;10418693;28;20203;-66
2023/08/28 07:15:40;;;;;;;3.92;1.58;;;;;;;-145.68;100.00;73271.94;10418553;28;20208;-67
2023/08/28 07:20:40;;;;;;;3.20;1.73;;;;;;;-145.68;100.00;73271.94;10421521;28;20196;-67
2023/08/28 07:25:41;;;;;;;6.15;1.98;;;;;;;-145.68;100.00;73267.94;10475772;22;20236;-66
2023/08/28 07:30:42;;;;;;;2.60;1.80;;;;;;;-145.68;100.00;73231.97;10452556;28;20196;-67
2023/08/28 07:35:43;;;;;;;3.50;1.80;;;;;;;-145.68;100.00;73253.94;10453606;28;20581;-67
2023/08/28 07:40:46;;;;;;;1.42;1.33;;;;;;;-145.68;100.00;73211.97;10455167;28;20660;-67
2023/08/28 07:45:46;;;;;;;1.70;1.55;;;;;;;-145.68;100.00;73182.00;10455106;28;20220;-67
2023/08/28 07:50:46;;;;;;;2.40;1.60;;;;;;;-145.68;100.00;73186.00;10454743;28;20270;-67
2023/08/28 07:55:48;;;;;;;3.05;1.38;;;;;;;-145.68;97.45;73196.00;10454492;28;20212;-67
2023/08/28 08:00:48;;;;;;;2.97;1.30;;;;;;;-145.68;95.35;73184.00;10436878;28;20646;-67
2023/08/28 08:05:51;;;;;;;1.90;1.40;;;;;;;-145.68;99.08;73168.00;10452785;28;20224;-67
2023/08/28 08:10:52;;;;;;;1.25;1.13;;;;;;;-145.68;100.00;73168.00;10438951;28;20185;-67
2023/08/28 08:15:52;;;;;;;1.42;1.33;;;;;;;-145.68;99.90;73104.06;10435034;28;20204;-67
2023/08/28 08:20:52;;;;;;;2.72;1.38;;;;;;;-145.68;91.59;73086.06;10430907;28;20187;-67
2023/08/28 08:25:54;;;;;;;2.15;1.50;;;;;;;-145.68;98.12;73100.06;10432790;28;20923;-66
2023/08/28 08:30:54;;;;;;;3.95;1.40;;;;;;;-145.68;100.00;73064.09;10430840;28;20717;-67
2023/08/28 08:35:55;;;;;;;3.85;1.90;;;;;;;-145.68;94.33;73100.06;10433698;28;20268;-66
2023/08/28 08:40:58;;;;;;;3.45;1.75;;;;;;;-145.68;85.79;73070.06;10434322;28;20203;-66
2023/08/28 08:46:08;;;;;;;2.13;1.60;;;;;;;-145.68;85.82;73128.03;10431909;28;20226;-66
2023/08/28 08:51:09;;;;;;;7.43;1.80;;;;;;;-145.68;88.32;73160.00;10432455;28;20285;-67
2023/08/28 08:56:12;;;;;;;4.75;1.50;;;;;;;-145.68;92.78;73116.03;10416398;28;20200;-67
2023/08/28 09:01:13;;;;;;;1.80;1.70;;;;;;;-145.68;93.42;73108.06;10445929;28;20188;-68
2023/08/28 09:06:15;;;;;;;7.72;2.72;;;;;;;-145.68;94.23;73104.06;10434315;28;20717;-68
2023/08/28 09:11:15;;;;;;;3.65;1.80;;;;;;;-145.68;96.29;73203.97;10451159;28;20278;-68
2023/08/28 09:16:18;;;;;;;3.55;1.90;;;;;;;-145.68;100.00;73275.94;10451045;28;20211;-68
2023/08/28 09:21:18;;;;;;;7.80;2.15;;;;;;;-145.68;100.00;73203.97;10451597;28;20184;-68
2023/08/28 09:26:23;;;;;;;2.13;1.90;;;;;;;-145.68;100.00;73136.03;10450541;28;20729;-70
2023/08/28 09:31:30;;;;;;;3.25;1.80;;;;;;;-145.68;100.00;73084.06;10450989;28;20196;-68
2023/08/28 09:36:37;;;;;;;3.80;2.95;;;;;;;-145.68;100.00;73070.06;10450899;28;20238;-70
2023/08/28 09:41:48;;;;;;;6.75;3.80;;;;;;;-145.68;100.00;73044.09;10449328;28;20207;-67
2023/08/28 09:46:53;;;;;;;4.50;4.10;;;;;;;-145.68;100.00;73068.06;10435084;28;20244;-68
2023/08/28 09:51:53;;;;;;;4.78;4.22;;;;;;;-145.68;100.00;73076.06;10409344;28;20609;-68
2023/08/28 09:56:53;;;;;;;4.45;3.58;;;;;;;-145.68;100.00;73090.06;10412802;28;20208;-69
2023/08/28 10:01:54;;;;;;;4.05;3.55;;;;;;;-145.68;100.00;73112.03;10428649;28;20211;-67
2023/08/28 10:06:57;;;;;;;7.03;4.28;;;;;;;-145.68;100.00;73136.03;10429458;28;20212;-70
2023/08/28 10:12:00;;;;;;;4.93;3.20;;;;;;;-145.68;100.00;73146.03;10411181;28;20188;-68
2023/08/28 10:17:04;;;;;;;4.53;3.55;;;;;;;-145.68;100.00;73174.00;10394956;28;20251;-65
2023/08/28 10:22:08;;;;;;;5.32;3.97;;;;;;;-145.68;100.00;73209.97;10409446;28;20845;-68
2023/08/28 10:27:10;;;;;;;5.30;3.90;;;;;;;-145.68;100.00;73215.97;10426450;28;20663;-66
2023/08/28 10:32:11;;;;;;;4.57;4.13;;;;;;;-145.68;100.00;73235.97;10428126;28;20200;-66
2023/08/28 10:37:15;;;;;;;5.20;4.70;;;;;;;-145.68;100.00;73251.94;10408119;28;20232;-66
2023/08/28 10:42:19;;;;;;;7.60;5.32;;;;;;;-145.68;100.00;73251.94;10424543;28;20184;-66
2023/08/28 10:47:19;;;;;;;9.43;5.53;;;;;;;-145.68;100.00;73275.94;10415166;28;20217;-66
2023/08/28 10:52:20;;;;;;;7.13;5.22;;;;;;;-145.68;100.00;73281.94;10408538;28;20184;-67
2023/08/28 10:57:27;;;;;;;11.85;6.43;;;;;;;-145.68;100.00;73281.94;10427235;28;20207;-67
2023/08/28 11:03:06;;;;;;;8.93;5.57;;;;;;;-145.68;100.00;73317.91;10425497;28;20746;-66
2023/08/28 11:08:11;;;;;;;6.80;4.57;;;;;;;-145.68;100.00;73335.91;10428297;28;20239;-66
2023/08/28 11:13:20;;;;;;;7.53;4.60;;;;;;;-145.68;100.00;73359.88;10425422;28;20185;-66
2023/08/28 11:18:26;;;;;;;7.00;4.35;;;;;;;-145.68;100.00;73355.88;10420489;28;20228;-66
2023/08/28 11:23:35;;;;;;;4.20;3.80;;;;;;;-145.68;100.00;73355.88;10407057;28;20218;-65
2023/08/28 11:28:44;;;;;;;8.38;5.15;;;;;;;-145.68;100.00;73359.88;10406616;28;20595;-68
2023/08/28 11:33:52;;;;;;;6.85;5.32;;;;;;;-145.68;100.00;73337.91;10407069;28;20216;-67
2023/08/28 11:38:53;;;;;;;6.38;5.22;;;;;;;-145.68;100.00;73321.91;10406580;28;20576;-67
2023/08/28 11:43:54;;;;;;;12.05;6.22;;;;;;;-145.68;100.00;73313.91;10411808;28;20306;-67
2023/08/28 11:48:54;;;;;;;8.88;6.25;;;;;;;-145.68;100.00;73329.91;10424564;28;20687;-67
2023/08/28 11:53:54;;;;;;;7.22;5.47;;;;;;;-145.68;100.00;73331.91;10431572;28;20603;-67
2023/08/28 11:58:55;;;;;;;8.10;6.07;;;;;;;-145.68;100.00;73349.88;10432317;28;20207;-67
2023/08/28 12:04:00;;;;;;;6.05;5.25;;;;;;;-145.68;100.00;73349.88;10433386;28;20216;-67
2023/08/28 12:09:00;;;;;;;11.82;6.07;;;;;;;-145.68;100.00;73343.88;10432648;28;20270;-67
2023/08/28 12:14:16;;;;;;;9.25;5.97;;;;;;;-145.68;100.00;73345.88;10432232;28;20650;-67
2023/08/28 12:19:23;;;;;;;10.43;8.00;;;;;;;-145.68;100.00;73347.88;10431342;28;20219;-67
2023/08/28 12:24:25;;;;;;;14.95;8.52;;;;;;;-145.68;100.00;73357.88;10430822;28;20564;-67
2023/08/28 12:29:26;;;;;;;8.05;7.25;;;;;;;-145.68;100.00;73345.88;10441763;28;20257;-67
2023/08/28 12:34:28;;;;;;;9.02;7.30;;;;;;;-145.68;100.00;73353.88;10453151;28;20192;-67
2023/08/28 12:39:28;;;;;;;10.10;8.75;;;;;;;-145.68;100.00;73345.88;10453390;28;20207;-67
2023/08/28 12:44:30;;;;;;;10.02;9.02;;;;;;;-145.68;100.00;73339.91;10452684;28;20717;-67
2023/08/28 12:49:32;;;;;;;12.60;10.20;;;;;;;-145.68;100.00;73325.91;10452791;28;20655;-67
2023/08/28 12:54:32;;;;;;;10.90;9.90;;;;;;;-145.68;100.00;73317.91;10432852;28;20189;-67
2023/08/28 12:59:33;;;;;;;12.82;10.82;;;;;;;-145.68;100.00;73313.91;10430185;28;20693;-67
2023/08/28 13:04:33;;;;;;;11.07;9.50;;;;;;;-145.68;100.00;73323.91;10444605;28;20289;-67
2023/08/28 13:09:34;;;;;;;9.57;8.05;;;;;;;-145.68;100.00;73323.91;10451807;28;20211;-67
2023/08/28 13:14:34;;;;;;;10.05;7.47;;;;;;;-145.68;100.00;73315.91;10451850;28;20192;-66
2023/08/28 13:19:34;;;;;;;11.23;8.77;;;;;;;-145.68;100.00;73305.91;10451462;28;20265;-66
2023/08/28 13:24:35;;;;;;;9.50;8.55;;;;;;;-145.68;100.00;73301.91;10450362;28;20208;-67
2023/08/28 13:29:35;;;;;;;9.27;8.32;;;;;;;-145.68;100.00;73283.94;10441486;22;21009;-70
2023/08/28 13:34:36;;;;;;;10.13;6.60;;;;;;;-145.68;100.00;73261.94;10409485;28;20185;-69
2023/08/28 13:39:37;;;;;;;8.55;7.72;;;;;;;-145.68;100.00;73243.97;10378818;28;20209;-69
2023/08/28 13:44:38;;;;;;;7.65;6.88;;;;;;;-145.68;100.00;73243.97;10382034;28;20243;-69
2023/08/28 13:49:38;;;;;;;6.53;5.28;;;;;;;-145.68;100.00;73211.97;10409619;28;20273;-69
2023/08/28 13:54:38;;;;;;;5.05;3.85;;;;;;;-145.68;100.00;73251.94;10407365;28;20250;-69
2023/08/28 13:59:39;;;;;;;4.53;3.95;;;;;;;-145.68;100.00;73257.94;10408220;28;20851;-69
2023/08/28 14:04:39;;;;;;;6.05;4.20;;;;;;;-145.68;100.00;73289.94;10406867;28;20638;-69
2023/08/28 14:09:39;;;;;;;5.18;4.75;;;;;;;-145.68;100.00;73267.94;10390236;28;20251;-68
2023/08/28 14:14:40;;;;;;;10.15;8.18;;;;;;;-145.68;100.00;73273.94;10369611;28;20641;-69
2023/08/28 14:19:40;;;;;;;8.38;6.57;;;;;;;-145.68;100.00;73277.94;10368507;28;20287;-69
2023/08/28 14:24:41;;;;;;;11.23;9.57;;;;;;;-145.68;100.00;73255.94;10369613;28;20209;-69
2023/08/28 14:29:41;;;;;;;8.95;7.65;;;;;;;-145.68;100.00;73251.94;10380183;28;20243;-69
2023/08/28 14:34:42;;;;;;;8.38;7.57;;;;;;;-145.68;100.00;73253.94;10409851;28;20191;-69
2023/08/28 14:39:42;;;;;;;4.05;3.70;;;;;;;-145.68;100.00;73287.94;10406494;28;20240;-68
2023/08/28 14:44:42;;;;;;;4.32;3.92;;;;;;;-145.68;100.00;73283.94;10377447;28;20209;-70
2023/08/28 14:49:43;;;;;;;7.55;6.85;;;;;;;-145.68;100.00;73285.94;10373406;28;20208;-70
2023/08/28 14:54:43;;;;;;;10.00;6.68;;;;;;;-145.68;100.00;73281.94;10382036;28;20706;-69
2023/08/28 14:59:43;;;;;;;7.13;6.53;;;;;;;-145.68;100.00;73269.94;10386939;28;20640;-69
2023/08/28 15:04:44;;;;;;;11.57;10.40;;;;;;;-145.68;100.00;73279.94;10389155;28;20221;-70
2023/08/28 15:09:44;;;;;;;10.07;9.18;;;;;;;-145.68;100.00;73303.91;10386880;28;20204;-69
2023/08/28 15:14:44;;;;;;;9.60;8.65;;;;;;;-145.68;100.00;73331.91;10408999;28;20200;-69
2023/08/28 15:19:45;;;;;;;10.70;9.52;;;;;;;-145.68;100.00;73331.91;10409048;28;20278;-70
2023/08/28 15:24:45;;;;;;;13.55;12.35;;;;;;;-145.68;100.00;73353.88;10409053;28;20224;-69
2023/08/28 15:29:48;;;;;;;14.77;12.63;;;;;;;-145.68;100.00;73383.88;10413673;28;20282;-70
2023/08/28 15:34:48;;;;;;;15.63;13.90;;;;;;;-145.68;100.00;73397.84;10415789;28;20200;-71
2023/08/28 15:39:49;;;;;;;12.80;11.50;;;;;;;-145.68;100.00;73421.84;10416139;28;20213;-70
2023/08/28 15:44:49;;;;;;;12.23;10.98;;;;;;;-145.68;100.00;73437.84;10416436;28;20578;-70
2023/08/28 15:49:50;;;;;;;15.52;12.50;;;;;;;-145.68;100.00;73443.84;10415637;28;20212;-70
2023/08/28 15:54:53;;;;;;;14.45;13.05;;;;;;;-145.68;100.00;73469.81;10416173;28;20566;-70
2023/08/28 15:59:54;;;;;;;15.32;13.75;;;;;;;-145.68;100.00;73465.81;10415932;28;20224;-70
2023/08/28 16:04:54;;;;;;;14.82;13.38;;;;;;;-145.68;100.00;73469.81;10408030;28;20625;-71
2023/08/28 16:09:54;;;;;;;18.67;16.70;;;;;;;-145.68;100.00;73483.81;10394796;28;20205;-71
2023/08/28 16:14:55;;;;;;;20.80;18.67;;;;;;;-145.68;100.00;73487.81;10393980;28;20181;-71
2023/08/28 16:19:55;;;;;;;15.95;13.50;;;;;;;-145.68;100.00;73491.81;10392185;28;20207;-71
2023/08/28 16:24:56;;;;;;;14.38;10.68;;;;;;;-145.68;100.00;73477.81;10385658;28;20769;-70
2023/08/28 16:29:56;;;;;;;11.20;10.15;;;;;;;-145.68;100.00;73477.81;10394752;28;20217;-70
2023/08/28 16:34:57;;;;;;;10.52;9.32;;;;;;;-145.68;100.00;73467.81;10399888;28;20546;-70
2023/08/28 16:39:58;;;;;;;10.38;9.38;;;;;;;-145.68;100.00;73467.81;10414225;28;20212;-70
2023/08/28 16:44:58;;;;;;;10.18;9.07;;;;;;;-145.68;100.00;73467.81;10415591;28;20224;-70
2023/08/28 16:49:58;;;;;;;11.10;10.00;;;;;;;-145.68;100.00;73477.81;10415111;28;20216;-69
2023/08/28 16:54:59;;;;;;;10.65;9.65;;;;;;;-145.68;100.00;73499.78;10415074;28;20631;-70
2023/08/28 16:59:59;;;;;;;9.57;8.57;;;;;;;-145.68;100.00;73519.78;10414284;28;20584;-70
2023/08/28 17:05:00;;;;;;;9.18;7.57;;;;;;;-145.68;100.00;73511.78;10413806;28;20219;-70
2023/08/28 17:10:03;;;;;;;10.40;7.28;;;;;;;-145.68;100.00;73511.78;10414030;28;20601;-69
2023/08/28 17:15:03;;;;;;;6.65;5.97;;;;;;;-145.68;100.00;73523.78;10413410;28;20209;-70
2023/08/28 17:20:05;;;;;;;7.03;5.07;;;;;;;-145.68;100.00;73529.78;10413706;28;20239;-69
2023/08/28 17:25:05;;;;;;;5.82;3.88;;;;;;;-145.68;100.00;73573.75;10413110;28;20216;-70
2023/08/28 17:30:07;;;;;;;4.15;3.55;;;;;;;-145.68;100.00;73583.75;10412828;28;20251;-70
2023/08/28 17:35:08;;;;;;;3.20;2.90;;;;;;;-145.68;100.00;73595.75;10412961;28;20275;-69
2023/08/28 17:40:09;;;;;;;2.67;2.47;;;;;;;-145.68;100.00;73619.72;10412476;28;20821;-69
2023/08/28 17:45:09;;;;;;;3.97;2.40;;;;;;;-145.68;100.00;73647.72;10412512;28;20220;-69
2023/08/28 17:50:10;;;;;;;2.80;2.60;;;;;;;-145.68;100.00;73657.69;10411942;28;20231;-69
2023/08/28 17:55:10;;;;;;;3.30;2.45;;;;;;;-145.68;100.00;73661.69;10412101;28;20691;-69
2023/08/28 18:00:11;;;;;;;2.30;2.10;;;;;;;-145.68;100.00;73673.69;10411882;28;20223;-69
2023/08/28 18:05:14;;;;;;;1.80;1.70;;;;;;;-145.68;100.00;73683.69;10411975;28;20722;-69
2023/08/28 18:10:14;;;;;;;1.95;1.83;;;;;;;-145.68;100.00;73673.69;10411651;28;20216;-69
2023/08/28 18:15:17;;;;;;;2.80;2.60;;;;;;;-145.68;100.00;73687.69;10411500;28;20192;-69
2023/08/28 18:20:19;;;;;;;5.90;3.30;;;;;;;-145.68;100.00;73691.69;10411463;28;20209;-68
2023/08/28 18:25:21;;;;;;;7.10;3.20;;;;;;;-145.68;100.00;73711.66;10411142;28;20216;-68
2023/08/28 18:30:22;;;;;;;3.97;3.10;;;;;;;-145.68;100.00;73685.69;10410751;28;20244;-69
2023/08/28 18:35:22;;;;;;;3.72;2.50;;;;;;;-145.68;100.00;73687.69;10411031;28;20192;-69
2023/08/28 18:40:23;;;;;;;4.03;2.30;;;;;;;-145.68;100.00;73681.69;10410819;28;20201;-69
2023/08/28 18:45:23;;;;;;;2.58;2.38;;;;;;;-145.68;100.00;73691.69;10410692;28;20216;-68
2023/08/28 18:50:23;;;;;;;5.28;2.60;;;;;;;-145.68;100.00;73699.69;10410532;28;20306;-69
2023/08/28 18:55:24;;;;;;;3.42;2.25;;;;;;;-145.68;100.00;73691.69;10410559;28;20662;-68
2023/08/28 19:00:24;;;;;;;2.67;2.35;;;;;;;-145.68;100.00;73699.69;10410366;28;20295;-69
2023/08/28 19:05:25;;;;;;;2.75;2.45;;;;;;;-145.68;100.00;73705.69;10413346;28;20239;-70
2023/08/28 19:10:25;;;;;;;3.17;2.67;;;;;;;-145.68;100.00;73709.69;10395645;28;20232;-70
2023/08/28 19:15:26;;;;;;;2.88;2.65;;;;;;;-145.68;100.00;73705.69;10398012;28;20185;-70
2023/08/28 19:20:26;;;;;;;4.30;2.75;;;;;;;-145.68;100.00;73713.66;10399703;28;20702;-69
2023/08/28 19:25:27;;;;;;;3.05;2.33;;;;;;;-145.68;100.00;73699.69;10417788;28;20216;-69
2023/08/28 19:30:28;;;;;;;3.40;2.03;;;;;;;-145.68;100.00;73707.69;10435675;22;20246;-69
2023/08/28 19:35:28;;;;;;;2.47;2.13;;;;;;;-145.68;100.00;73701.69;10416855;28;20262;-67
2023/08/28 19:40:29;;;;;;;2.00;1.90;;;;;;;-145.68;100.00;73713.66;10417219;28;20655;-70
2023/08/28 19:45:29;;;;;;;2.33;2.10;;;;;;;-145.68;100.00;73723.66;10417061;28;20224;-68
2023/08/28 19:50:33;;;;;;;1.97;1.87;;;;;;;-145.68;100.00;73739.66;10417069;28;20204;-68
2023/08/28 19:55:34;;;;;;;2.50;2.30;;;;;;;-145.68;100.00;73743.66;10416869;28;20702;-68
2023/08/28 20:00:34;;;;;;;3.83;2.67;;;;;;;-145.68;100.00;73759.66;10416405;28;20204;-69
2023/08/28 20:05:35;;;;;;;3.63;3.20;;;;;;;-145.68;100.00;73763.66;10416274;28;20286;-68
2023/08/28 20:10:36;;;;;;;3.50;3.20;;;;;;;-145.68;100.00;73759.66;10415973;28;20212;-67
2023/08/28 20:15:36;;;;;;;2.95;2.72;;;;;;;-145.68;100.00;73741.66;10419588;28;20183;-68
2023/08/28 20:20:37;;;;;;;3.90;3.53;;;;;;;-145.68;100.00;73747.66;10457413;28;20218;-68
2023/08/28 20:25:37;;;;;;;5.57;3.80;;;;;;;-145.68;100.00;73761.66;10457133;28;20252;-69
2023/08/28 20:30:38;;;;;;;3.38;3.13;;;;;;;-145.68;100.00;73755.66;10457092;28;20258;-69
2023/08/28 20:35:39;;;;;;;4.47;3.90;;;;;;;-145.68;100.00;73741.66;10456835;28;20199;-68
2023/08/28 20:40:39;;;;;;;6.03;4.38;;;;;;;-145.68;100.00;73739.66;10456857;28;20558;-68
2023/08/28 20:45:40;;;;;;;7.07;4.18;;;;;;;-145.68;100.00;73751.66;10456488;28;20223;-68
2023/08/28 20:50:40;;;;;;;5.18;4.68;;;;;;;-145.68;100.00;73739.66;10456175;28;20725;-69
2023/08/28 20:55:41;;;;;;;5.28;4.57;;;;;;;-145.68;100.00;73731.66;10456147;28;20184;-69
2023/08/28 21:00:41;;;;;;;5.53;4.70;;;;;;;-145.68;100.00;73737.66;10455640;28;20215;-69
2023/08/28 21:05:41;;;;;;;4.38;3.95;;;;;;;-145.68;100.00;73723.66;10455508;28;20269;-69
2023/08/28 21:10:42;;;;;;;4.13;3.53;;;;;;;-145.68;100.00;73727.66;10455224;28;20211;-70
2023/08/28 21:15:42;;;;;;;4.88;4.10;;;;;;;-145.68;100.00;73731.66;10455566;28;20184;-68
2023/08/28 21:20:43;;;;;;;5.32;4.53;;;;;;;-145.68;100.00;73743.66;10454925;28;20212;-70
2023/08/28 21:25:46;;;;;;;5.07;4.57;;;;;;;-145.68;100.00;73753.66;10454211;28;20224;-70
2023/08/28 21:31:00;;;;;;;6.03;5.38;;;;;;;-145.68;100.00;73727.66;10454657;28;20328;-67
2023/08/28 21:36:04;;;;;;;6.65;5.95;;;;;;;-145.68;100.00;73715.66;10454505;28;20191;-68
2023/08/28 21:41:05;;;;;;;9.68;7.28;;;;;;;-145.68;100.00;73731.66;10436913;28;20208;-68
2023/08/28 21:46:05;;;;;;;7.43;5.93;;;;;;;-145.68;100.00;73735.66;10454315;28;20373;-68
2023/08/28 21:51:06;;;;;;;8.48;7.07;;;;;;;-145.68;100.00;73729.66;10453992;28;20252;-67
2023/08/28 21:56:25;;;;;;;9.27;8.27;;;;;;;-145.68;100.00;73721.66;10454458;28;20196;-68
2023/08/28 22:01:43;;;;;;;9.43;8.23;;;;;;;-145.68;100.00;73741.66;10454528;28;20224;-68
2023/08/28 22:07:03;;;;;;;8.83;6.97;;;;;;;-145.68;100.00;73733.66;10453368;28;20228;-67
2023/08/28 22:12:18;;;;;;;6.93;5.78;;;;;;;-145.68;100.00;73743.66;10436181;28;20187;-67
2023/08/28 22:17:19;;;;;;;8.65;7.30;;;;;;;-145.68;100.00;73747.66;10434994;28;20210;-69
2023/08/28 22:22:19;;;;;;;10.15;9.15;;;;;;;-145.68;100.00;73723.66;10452956;28;20188;-67
2023/08/28 22:27:20;;;;;;;8.98;6.82;;;;;;;-145.68;100.00;73705.69;10434568;28;20254;-67
2023/08/28 22:32:20;;;;;;;7.38;6.43;;;;;;;-145.68;100.00;73711.66;10452511;28;20666;-68